Time;durP1;ratioP1;P1;durP2;ratioP2;P2;SDS_P1;SDS_P2;PMS_P1;PMS_P2;Temp;Humidity;BMP_temperature;BMP_pressure;BME280_temperature;BME280_humidity;BME280_pressure;Samples;Min_cycle;Max_cycle;Signal;HPM_P1;HPM_P2
2024/01/10 00:02:05;;;;;;;;;;;;;;;0.33;42.89;100709.62;4391353;32;31859;-88
2024/01/10 00:04:33;;;;;;;;;;;;;;;0.40;42.54;100706.78;4421105;32;34465;-88
2024/01/10 00:07:00;;;;;;;;;;;;;;;0.32;42.95;100710.41;4425540;32;32737;-87
2024/01/10 00:09:28;;;;;;;;;;;;;;;0.28;43.22;100710.06;4434755;32;34221;-88
2024/01/10 00:11:55;;;;;;;;;;;;;;;0.35;42.86;100705.56;4435221;32;34105;-88
2024/01/10 00:14:22;;;;;;;;;;;;;;;0.36;42.51;100709.00;4427858;32;35129;-88
2024/01/10 00:16:50;;;;;;;;;;;;;;;0.39;42.35;100715.22;4428668;32;34311;-87
2024/01/10 00:19:17;;;;;;;;;;;;;;;0.44;42.79;100713.91;4436346;32;33625;-87
2024/01/10 00:21:45;;;;;;;;;;;;;;;0.39;42.66;100717.78;4436399;32;34987;-87
2024/01/10 00:24:12;;;;;;;;;;;;;;;0.21;42.89;100714.69;4428612;32;34260;-88
2024/01/10 00:26:39;;;;;;;;;;;;;;;0.27;42.66;100714.28;4424421;32;35076;-87
2024/01/10 00:29:07;;;;;;;;;;;;;;;0.21;42.91;100719.78;4422565;32;34279;-87
2024/01/10 00:31:34;;;;;;;;;;;;;;;0.16;43.02;100715.09;4421634;32;33935;-87
2024/01/10 00:34:02;;;;;;;;;;;;;;;0.15;42.86;100719.31;4414113;32;33580;-87
2024/01/10 00:36:29;;;;;;;;;;;;;;;0.08;42.71;100705.97;4423642;32;33144;-88
2024/01/10 00:38:56;;;;;;;;;;;;;;;0.10;42.46;100710.38;4427932;32;33183;-87
2024/01/10 00:41:24;;;;;;;;;;;;;;;0.22;41.78;100710.47;4420983;32;33718;-85
2024/01/10 00:43:51;;;;;;;;;;;;;;;0.15;42.42;100713.28;4406898;32;33684;-86
2024/01/10 00:46:18;;;;;;;;;;;;;;;-0.06;42.76;100713.41;4421934;32;32772;-87
2024/01/10 00:48:46;;;;;;;;;;;;;;;-0.11;42.25;100719.81;4422622;32;33537;-87
2024/01/10 00:51:15;;;;;;;;;;;;;;;0.02;41.87;100716.56;4391622;32;32907;-86
2024/01/10 00:53:44;;;;;;;;;;;;;;;0.11;41.63;100721.47;4421150;32;33628;-87
2024/01/10 00:56:12;;;;;;;;;;;;;;;0.18;41.76;100711.87;4421160;32;33754;-87
2024/01/10 00:58:41;;;;;;;;;;;;;;;0.11;41.58;100717.25;4413317;32;34299;-87
2024/01/10 01:01:09;;;;;;;;;;;;;;;0.15;42.24;100714.22;4425052;32;34908;-88
2024/01/10 01:03:39;;;;;;;;;;;;;;;-0.10;42.32;100721.56;4422282;32;35252;-88
2024/01/10 01:06:07;;;;;;;;;;;;;;;-0.07;41.45;100719.28;4421414;32;34723;-87
2024/01/10 01:08:35;;;;;;;;;;;;;;;0.01;41.25;100709.69;4423775;32;33036;-87
2024/01/10 01:11:05;;;;;;;;;;;;;;;0.01;40.69;100714.78;4433138;32;32697;-87
2024/01/10 01:13:33;;;;;;;;;;;;;;;0.03;40.76;100718.31;4436325;32;35156;-87
2024/01/10 01:16:02;;;;;;;;;;;;;;;-0.19;42.02;100714.84;4436583;32;35102;-86
2024/01/10 01:18:31;;;;;;;;;;;;;;;-0.04;42.09;100724.63;4437125;32;33105;-88
2024/01/10 01:20:59;;;;;;;;;;;;;;;-0.06;42.94;100726.13;4433071;32;33791;-86
2024/01/10 01:23:27;;;;;;;;;;;;;;;-0.18;43.25;100722.63;4421667;32;34308;-88
2024/01/10 01:26:08;;;;;;;;;;;;;;;0.01;42.46;100716.44;4421586;32;34504;-87
2024/01/10 01:28:35;;;;;;;;;;;;;;;-0.37;43.08;100727.91;4435728;32;33654;-89
2024/01/10 01:31:03;;;;;;;;;;;;;;;-0.20;42.65;100721.59;4423416;32;33777;-88
2024/01/10 01:33:30;;;;;;;;;;;;;;;-0.25;42.73;100722.91;4427158;32;34072;-86
2024/01/10 01:35:58;;;;;;;;;;;;;;;-0.30;42.52;100719.97;4420879;32;32541;-87
2024/01/10 01:38:26;;;;;;;;;;;;;;;-0.25;42.57;100722.91;4427370;32;34498;-89
2024/01/10 01:40:55;;;;;;;;;;;;;;;-0.21;41.94;100716.38;4433133;32;35023;-87
2024/01/10 01:43:26;;;;;;;;;;;;;;;-0.23;41.82;100718.78;4420944;32;34727;-88
2024/01/10 01:45:57;;;;;;;;;;;;;;;-0.34;42.28;100725.59;4411119;32;34145;-87
2024/01/10 01:48:25;;;;;;;;;;;;;;;-0.43;42.25;100721.41;4406059;32;32981;-86
2024/01/10 01:50:54;;;;;;;;;;;;;;;-0.57;42.64;100726.28;4402899;32;33197;-87
2024/01/10 01:53:23;;;;;;;;;;;;;;;-0.37;42.29;100711.72;4421190;32;34482;-89
2024/01/10 01:55:51;;;;;;;;;;;;;;;-0.40;43.28;100714.00;4435729;32;34012;-89
2024/01/10 01:58:38;;;;;;;;;;;;;;;-0.44;44.10;100709.44;4435870;32;34800;-88
2024/01/10 02:04:09;;;;;;;;;;;;;;;-0.35;42.78;100707.63;4433861;32;34186;-87
2024/01/10 02:06:37;;;;;;;;;;;;;;;-0.47;42.88;100711.72;4432091;32;35086;-87
2024/01/10 02:09:04;;;;;;;;;;;;;;;-0.56;43.31;100700.03;4420591;32;32937;-89
2024/01/10 02:11:31;;;;;;;;;;;;;;;-0.62;43.25;100702.06;4420352;32;35114;-89
2024/01/10 02:13:59;;;;;;;;;;;;;;;-0.71;43.78;100708.09;4421113;32;33743;-88
2024/01/10 02:16:27;;;;;;;;;;;;;;;-0.76;44.49;100712.78;4435642;32;33611;-88
2024/01/10 02:18:54;;;;;;;;;;;;;;;-0.69;44.24;100709.09;4433052;32;31994;-87
2024/01/10 02:21:22;;;;;;;;;;;;;;;-0.64;43.91;100710.38;4420970;32;32472;-88
2024/01/10 02:23:49;;;;;;;;;;;;;;;-0.53;43.80;100707.94;4405898;32;33018;-87
2024/01/10 02:26:16;;;;;;;;;;;;;;;-0.65;44.14;100709.47;4410225;32;33110;-88
2024/01/10 02:28:44;;;;;;;;;;;;;;;-0.68;43.44;100706.69;4410383;32;33601;-88
2024/01/10 02:31:11;;;;;;;;;;;;;;;-0.73;43.75;100702.84;4427159;32;33894;-88
2024/01/10 02:33:39;;;;;;;;;;;;;;;-0.52;43.25;100694.44;4403694;32;34152;-87
2024/01/10 02:36:07;;;;;;;;;;;;;;;-0.79;44.18;100697.28;4392979;32;33592;-86
2024/01/10 02:38:34;;;;;;;;;;;;;;;-0.97;44.98;100699.19;4412302;32;32810;-87
2024/01/10 02:41:02;;;;;;;;;;;;;;;-0.80;44.39;100700.56;4433871;32;32126;-88
2024/01/10 02:43:30;;;;;;;;;;;;;;;-0.93;43.87;100687.59;4404471;32;33399;-88
2024/01/10 02:45:58;;;;;;;;;;;;;;;-0.92;44.08;100700.44;4424770;32;33310;-87
2024/01/10 02:48:26;;;;;;;;;;;;;;;-0.80;43.47;100696.34;4436829;32;32518;-87
2024/01/10 02:50:55;;;;;;;;;;;;;;;-0.77;42.88;100698.28;4434081;32;35250;-88
2024/01/10 02:53:22;;;;;;;;;;;;;;;-0.93;43.58;100698.69;4409664;32;34355;-88
2024/01/10 02:55:50;;;;;;;;;;;;;;;-0.92;44.52;100689.38;4434319;32;34606;-88
2024/01/10 02:58:18;;;;;;;;;;;;;;;-0.97;43.72;100691.56;4417044;32;33989;-88
2024/01/10 03:00:45;;;;;;;;;;;;;;;-0.88;42.89;100706.69;4434173;32;34121;-88
2024/01/10 03:03:12;;;;;;;;;;;;;;;-1.16;44.11;100704.41;4420398;32;33544;-88
2024/01/10 03:05:40;;;;;;;;;;;;;;;-1.00;43.49;100697.28;4435493;32;34390;-89
2024/01/10 03:08:07;;;;;;;;;;;;;;;-0.85;44.17;100701.84;4421291;32;33251;-88
2024/01/10 03:10:34;;;;;;;;;;;;;;;-1.08;44.22;100693.22;4408708;32;34012;-88
2024/01/10 03:13:02;;;;;;;;;;;;;;;-1.21;45.09;100687.87;4434836;32;34282;-88
2024/01/10 03:15:31;;;;;;;;;;;;;;;-1.11;44.15;100692.94;4433831;32;34973;-89
2024/01/10 03:17:58;;;;;;;;;;;;;;;-1.24;44.35;100696.12;4436027;32;33890;-88
2024/01/10 03:20:26;;;;;;;;;;;;;;;-1.21;45.01;100700.59;4436741;32;34017;-88
2024/01/10 03:22:53;;;;;;;;;;;;;;;-1.20;44.35;100696.41;4433099;32;33675;-88
2024/01/10 03:25:20;;;;;;;;;;;;;;;-1.35;45.17;100698.53;4432107;32;34707;-89
2024/01/10 03:27:48;;;;;;;;;;;;;;;-1.27;44.99;100703.50;4437166;32;33965;-89
2024/01/10 03:30:18;;;;;;;;;;;;;;;-1.32;44.26;100698.81;4437074;32;33787;-87
2024/01/10 03:32:45;;;;;;;;;;;;;;;-1.36;44.22;100704.41;4437062;32;34434;-88
2024/01/10 03:35:13;;;;;;;;;;;;;;;-1.33;43.75;100702.97;4433962;32;35294;-86
2024/01/10 03:37:40;;;;;;;;;;;;;;;-1.29;43.77;100701.59;4434287;32;33499;-89
2024/01/10 03:40:08;;;;;;;;;;;;;;;-1.19;43.50;100705.81;4437176;32;34190;-89
2024/01/10 03:42:35;;;;;;;;;;;;;;;-1.48;45.25;100701.69;4436863;32;35718;-87
2024/01/10 03:45:03;;;;;;;;;;;;;;;-1.44;44.62;100701.19;4413332;32;34635;-89
2024/01/10 03:47:30;;;;;;;;;;;;;;;-1.19;43.71;100699.06;4431816;32;34372;-89
2024/01/10 03:49:58;;;;;;;;;;;;;;;-1.13;43.48;100691.94;4436224;32;34862;-87
2024/01/10 03:52:25;;;;;;;;;;;;;;;-1.03;43.61;100697.00;4437759;32;34131;-89
2024/01/10 03:54:52;;;;;;;;;;;;;;;-1.14;43.92;100694.34;4414674;32;35136;-89
2024/01/10 03:57:20;;;;;;;;;;;;;;;-1.42;45.44;100702.22;4436124;32;33514;-89
2024/01/10 03:59:47;;;;;;;;;;;;;;;-1.52;44.35;100700.53;4436114;32;33956;-88
2024/01/10 04:02:14;;;;;;;;;;;;;;;-1.44;44.18;100700.28;4435533;32;34189;-89
2024/01/10 04:04:42;;;;;;;;;;;;;;;-1.29;43.72;100699.03;4437201;32;34542;-88
2024/01/10 04:07:09;;;;;;;;;;;;;;;-1.37;44.74;100700.06;4436030;32;33209;-89
2024/01/10 04:09:36;;;;;;;;;;;;;;;-1.43;45.20;100704.66;4436635;32;34102;-88
2024/01/10 04:12:04;;;;;;;;;;;;;;;-1.35;44.26;100701.09;4436550;32;35218;-88
2024/01/10 04:14:31;;;;;;;;;;;;;;;-1.27;43.88;100698.41;4437471;32;34163;-87
2024/01/10 04:16:58;;;;;;;;;;;;;;;-1.09;43.95;100695.63;4429576;32;33935;-87
2024/01/10 04:19:26;;;;;;;;;;;;;;;-1.27;44.78;100695.88;4437017;32;34239;-88
2024/01/10 04:21:53;;;;;;;;;;;;;;;-1.39;45.79;100694.84;4437628;32;33656;-89
2024/01/10 04:24:20;;;;;;;;;;;;;;;-1.31;45.38;100698.03;4437413;32;34028;-88
2024/01/10 04:26:48;;;;;;;;;;;;;;;-1.41;45.45;100698.91;4425885;32;33120;-87
2024/01/10 04:29:15;;;;;;;;;;;;;;;-1.46;45.40;100707.81;4419130;32;33378;-88
2024/01/10 04:31:42;;;;;;;;;;;;;;;-1.32;44.63;100701.34;4423661;32;34230;-88
2024/01/10 04:34:10;;;;;;;;;;;;;;;-1.17;43.70;100701.75;4422965;32;33662;-87
2024/01/10 04:36:38;;;;;;;;;;;;;;;-1.09;43.76;100696.53;4435382;32;34026;-87
2024/01/10 04:39:05;;;;;;;;;;;;;;;-1.20;43.97;100704.91;4435924;32;34102;-88
2024/01/10 04:41:32;;;;;;;;;;;;;;;-1.27;44.44;100700.06;4436016;32;34305;-90
2024/01/10 04:44:00;;;;;;;;;;;;;;;-1.48;44.38;100700.06;4436817;32;34463;-88
2024/01/10 04:46:27;;;;;;;;;;;;;;;-1.19;43.75;100704.16;4419208;32;33850;-88
2024/01/10 04:48:55;;;;;;;;;;;;;;;-1.24;43.43;100706.31;4420953;32;33850;-90
2024/01/10 04:51:22;;;;;;;;;;;;;;;-1.25;42.76;100708.72;4421115;32;33881;-89
2024/01/10 04:53:49;;;;;;;;;;;;;;;-1.24;42.69;100713.94;4407576;32;33847;-88
2024/01/10 04:56:17;;;;;;;;;;;;;;;-1.27;42.55;100710.25;4419372;32;34118;-87
2024/01/10 04:58:46;;;;;;;;;;;;;;;-1.19;42.16;100708.34;4418734;32;34158;-88
2024/01/10 05:01:13;;;;;;;;;;;;;;;-1.15;41.65;100702.75;4420489;32;35703;-87
2024/01/10 05:03:41;;;;;;;;;;;;;;;-1.20;41.59;100712.56;4407827;32;33691;-87
2024/01/10 05:06:08;;;;;;;;;;;;;;;-1.13;41.42;100714.84;4421728;32;33507;-86
2024/01/10 05:08:35;;;;;;;;;;;;;;;-1.07;41.15;100712.78;4420238;32;34007;-87
2024/01/10 05:11:03;;;;;;;;;;;;;;;-0.99;40.72;100710.88;4420937;32;34179;-87
2024/01/10 05:13:30;;;;;;;;;;;;;;;-1.02;40.60;100709.00;4421284;32;35179;-88
2024/01/10 05:15:58;;;;;;;;;;;;;;;-1.11;40.64;100709.88;4421129;32;33092;-87
2024/01/10 05:18:25;;;;;;;;;;;;;;;-1.16;41.52;100717.12;4421140;32;34966;-88
2024/01/10 05:20:53;;;;;;;;;;;;;;;-1.08;41.94;100717.78;4421560;32;35171;-88
2024/01/10 05:23:20;;;;;;;;;;;;;;;-1.13;41.38;100719.94;4420788;32;34780;-87
2024/01/10 05:25:48;;;;;;;;;;;;;;;-1.27;41.96;100711.13;4421198;32;32965;-87
2024/01/10 05:28:15;;;;;;;;;;;;;;;-1.20;41.53;100724.38;4420149;32;34607;-87
2024/01/10 05:30:43;;;;;;;;;;;;;;;-1.24;42.35;100723.25;4420511;32;34024;-89
2024/01/10 05:33:10;;;;;;;;;;;;;;;-1.30;42.20;100720.16;4420839;32;34171;-88
2024/01/10 05:35:38;;;;;;;;;;;;;;;-1.17;42.18;100723.00;4405618;32;33370;-86
2024/01/10 05:38:05;;;;;;;;;;;;;;;-1.24;41.87;100715.59;4419475;32;35066;-87
2024/01/10 05:40:33;;;;;;;;;;;;;;;-1.38;42.17;100721.16;4405991;32;34303;-88
2024/01/10 05:43:00;;;;;;;;;;;;;;;-1.62;41.75;100715.78;4416769;32;34801;-87
2024/01/10 05:45:28;;;;;;;;;;;;;;;-1.42;41.18;100721.69;4426550;32;34312;-87
2024/01/10 05:47:55;;;;;;;;;;;;;;;-1.25;41.18;100723.97;4421536;32;33812;-89
2024/01/10 05:50:22;;;;;;;;;;;;;;;-1.56;42.13;100723.91;4435987;32;33683;-88
2024/01/10 05:52:50;;;;;;;;;;;;;;;-1.76;43.24;100713.72;4432183;32;34131;-88
2024/01/10 05:55:17;;;;;;;;;;;;;;;-1.56;41.92;100713.75;4431778;32;34275;-87
2024/01/10 05:57:45;;;;;;;;;;;;;;;-1.59;42.29;100713.50;4434999;32;34890;-89
2024/01/10 06:00:12;;;;;;;;;;;;;;;-1.69;44.67;100712.59;4435090;32;34314;-87
2024/01/10 06:02:40;;;;;;;;;;;;;;;-1.65;43.92;100715.53;4423732;32;33904;-89
2024/01/10 06:05:08;;;;;;;;;;;;;;;-1.65;43.94;100723.16;4430588;32;33249;-87
2024/01/10 06:07:36;;;;;;;;;;;;;;;-1.56;43.95;100723.91;4418481;32;33670;-89
2024/01/10 06:10:04;;;;;;;;;;;;;;;-1.49;43.47;100722.81;4421037;32;34318;-86
2024/01/10 06:12:32;;;;;;;;;;;;;;;-1.34;43.76;100719.00;4435139;32;34314;-87
2024/01/10 06:14:59;;;;;;;;;;;;;;;-1.44;44.11;100733.34;4422666;32;33674;-86
2024/01/10 06:17:27;;;;;;;;;;;;;;;-1.60;44.21;100728.63;4436415;32;33750;-87
2024/01/10 06:19:54;;;;;;;;;;;;;;;-1.70;44.79;100734.59;4436203;32;33700;-86
2024/01/10 06:22:24;;;;;;;;;;;;;;;-1.74;45.37;100737.63;4435922;32;33914;-87
2024/01/10 06:24:56;;;;;;;;;;;;;;;-1.53;44.41;100734.38;4435776;32;33618;-87
2024/01/10 06:27:23;;;;;;;;;;;;;;;-1.43;43.98;100732.63;4434491;32;33439;-87
2024/01/10 06:29:50;;;;;;;;;;;;;;;-1.41;43.92;100737.06;4432762;32;35108;-86
2024/01/10 06:32:18;;;;;;;;;;;;;;;-1.51;44.34;100737.06;4436163;32;34249;-86
2024/01/10 06:34:45;;;;;;;;;;;;;;;-1.37;44.19;100735.66;4435757;32;31572;-87
2024/01/10 06:37:12;;;;;;;;;;;;;;;-1.65;44.36;100743.50;4435450;32;33713;-86
2024/01/10 06:39:41;;;;;;;;;;;;;;;-1.42;44.41;100748.00;4435802;32;34222;-87
2024/01/10 06:42:10;;;;;;;;;;;;;;;-1.55;44.15;100741.00;4436336;32;34291;-88
2024/01/10 06:44:38;;;;;;;;;;;;;;;-1.68;44.28;100748.31;4435555;32;34109;-87
2024/01/10 06:47:06;;;;;;;;;;;;;;;-1.68;43.92;100750.84;4435757;32;33822;-86
2024/01/10 06:49:33;;;;;;;;;;;;;;;-1.39;43.79;100749.94;4435966;32;35330;-87
2024/01/10 06:52:01;;;;;;;;;;;;;;;-1.42;43.50;100749.66;4435090;32;33341;-84
2024/01/10 06:54:28;;;;;;;;;;;;;;;-1.51;43.34;100755.75;4435349;32;34032;-86
2024/01/10 06:56:55;;;;;;;;;;;;;;;-1.22;42.70;100750.56;4435078;32;33896;-86
2024/01/10 06:59:23;;;;;;;;;;;;;;;-1.34;42.22;100748.66;4435358;32;34122;-86
2024/01/10 07:01:53;;;;;;;;;;;;;;;-1.30;42.40;100755.78;4433488;32;36070;-85
2024/01/10 07:04:23;;;;;;;;;;;;;;;-1.27;43.69;100756.06;4434803;32;33596;-85
2024/01/10 07:06:52;;;;;;;;;;;;;;;-1.38;43.13;100756.78;4435570;32;33853;-87
2024/01/10 07:09:19;;;;;;;;;;;;;;;-1.12;43.14;100762.44;4435661;32;34822;-86
2024/01/10 07:11:47;;;;;;;;;;;;;;;-1.13;44.67;100764.88;4436027;32;35207;-86
2024/01/10 07:14:15;;;;;;;;;;;;;;;-1.20;44.34;100768.53;4434007;32;34415;-86
2024/01/10 07:16:45;;;;;;;;;;;;;;;-1.19;43.60;100772.84;4433883;32;34770;-86
2024/01/10 07:19:13;;;;;;;;;;;;;;;-1.11;42.71;100770.94;4435549;32;34000;-86
2024/01/10 07:21:41;;;;;;;;;;;;;;;-1.06;42.29;100773.16;4435490;32;34024;-86
2024/01/10 07:24:09;;;;;;;;;;;;;;;-1.06;42.43;100772.22;4435890;32;33581;-87
2024/01/10 07:26:37;;;;;;;;;;;;;;;-1.21;42.86;100771.84;4433110;32;34899;-86
2024/01/10 07:29:08;;;;;;;;;;;;;;;-1.25;43.45;100774.88;4435526;32;34318;-84
2024/01/10 07:31:35;;;;;;;;;;;;;;;-1.13;42.95;100763.19;4423160;32;35238;-87
2024/01/10 07:34:05;;;;;;;;;;;;;;;-1.03;42.51;100772.50;4434765;32;34043;-85
2024/01/10 07:36:33;;;;;;;;;;;;;;;-1.06;42.62;100762.97;4435789;32;33984;-86
2024/01/10 07:39:01;;;;;;;;;;;;;;;-0.98;42.92;100763.59;4434233;32;34064;-86
2024/01/10 07:41:30;;;;;;;;;;;;;;;-1.15;43.87;100764.72;4435239;32;34406;-86
2024/01/10 07:43:58;;;;;;;;;;;;;;;-1.23;42.30;100763.19;4434878;32;33574;-86
2024/01/10 07:46:27;;;;;;;;;;;;;;;-1.16;42.48;100756.97;4434794;32;33783;-85
2024/01/10 07:48:54;;;;;;;;;;;;;;;-1.26;43.00;100756.16;4434420;32;33961;-87
2024/01/10 07:51:22;;;;;;;;;;;;;;;-1.02;42.48;100759.91;4435220;32;34454;-86
2024/01/10 07:53:49;;;;;;;;;;;;;;;-0.79;42.05;100764.38;4434593;32;34016;-85
2024/01/10 07:56:16;;;;;;;;;;;;;;;-0.71;42.43;100761.56;4434101;32;34072;-85
2024/01/10 07:58:44;;;;;;;;;;;;;;;-0.71;43.00;100767.56;4427586;32;35369;-87
2024/01/10 08:01:11;;;;;;;;;;;;;;;-0.58;42.59;100766.91;4435013;32;35068;-86
2024/01/10 08:03:39;;;;;;;;;;;;;;;-0.48;42.18;100766.00;4433987;32;33444;-87
2024/01/10 08:06:06;;;;;;;;;;;;;;;-0.47;41.94;100773.75;4436674;32;33990;-83
2024/01/10 08:08:46;;;;;;;;;;;;;;;-0.40;42.59;100770.06;4436084;32;34417;-86
2024/01/10 08:11:14;;;;;;;;;;;;;;;-0.39;42.99;100769.28;4436690;32;34467;-86
2024/01/10 08:13:41;;;;;;;;;;;;;;;-0.37;43.67;100770.31;4436322;32;33208;-87
2024/01/10 08:16:08;;;;;;;;;;;;;;;-0.30;43.98;100767.50;4436370;32;34701;-87
2024/01/10 08:18:36;;;;;;;;;;;;;;;-0.25;43.95;100776.41;4435311;32;34069;-87
2024/01/10 08:21:04;;;;;;;;;;;;;;;-0.37;44.14;100781.41;4436264;32;33830;-84
2024/01/10 08:23:31;;;;;;;;;;;;;;;-0.29;43.89;100779.47;4436147;32;33300;-87
2024/01/10 08:25:59;;;;;;;;;;;;;;;-0.39;44.62;100784.59;4436638;32;33984;-87
2024/01/10 08:28:26;;;;;;;;;;;;;;;-0.34;45.03;100780.75;4436795;32;35000;-85
2024/01/10 08:30:53;;;;;;;;;;;;;;;-0.30;45.42;100788.78;4436346;32;35172;-86
2024/01/10 08:33:30;;;;;;;;;;;;;;;-0.33;45.68;100782.56;4422062;32;33313;-86
2024/01/10 08:35:59;;;;;;;;;;;;;;;-0.50;46.12;100787.13;4434757;32;35157;-86
2024/01/10 08:38:26;;;;;;;;;;;;;;;-0.64;46.20;100792.78;4436601;32;34011;-87
2024/01/10 08:40:54;;;;;;;;;;;;;;;-0.66;45.60;100791.72;4437080;32;35418;-87
2024/01/10 08:43:21;;;;;;;;;;;;;;;-0.32;45.36;100789.41;4436458;32;33015;-87
2024/01/10 08:45:48;;;;;;;;;;;;;;;-0.18;45.16;100794.00;4436726;32;34699;-86
2024/01/10 08:48:16;;;;;;;;;;;;;;;-0.11;44.88;100790.28;4436862;32;34897;-86
2024/01/10 08:50:44;;;;;;;;;;;;;;;-0.16;45.29;100792.44;4437083;32;34492;-87
2024/01/10 08:53:11;;;;;;;;;;;;;;;-0.31;45.04;100796.28;4436255;32;32420;-87
2024/01/10 08:55:38;;;;;;;;;;;;;;;-0.20;44.85;100794.62;4428312;32;33675;-88
2024/01/10 08:58:07;;;;;;;;;;;;;;;-0.12;44.92;100791.91;4421756;32;34105;-87
2024/01/10 09:00:34;;;;;;;;;;;;;;;-0.08;45.17;100793.94;4420239;32;32750;-86
2024/01/10 09:03:01;;;;;;;;;;;;;;;-0.09;45.00;100789.63;4407962;32;33384;-85
2024/01/10 09:05:29;;;;;;;;;;;;;;;-0.10;44.68;100798.03;4428554;32;33881;-87
2024/01/10 09:07:56;;;;;;;;;;;;;;;-0.01;43.97;100785.13;4435716;32;33601;-88
2024/01/10 09:10:27;;;;;;;;;;;;;;;0.02;43.99;100787.06;4436630;32;34324;-88
2024/01/10 09:12:58;;;;;;;;;;;;;;;0.05;44.72;100789.84;4436250;32;33387;-86
2024/01/10 09:15:25;;;;;;;;;;;;;;;-0.11;44.42;100785.19;4434579;32;34960;-88
2024/01/10 09:17:52;;;;;;;;;;;;;;;-0.01;43.98;100777.50;4436732;32;34185;-88
2024/01/10 09:20:20;;;;;;;;;;;;;;;-0.04;43.51;100778.16;4436717;32;35135;-86
2024/01/10 09:22:48;;;;;;;;;;;;;;;0.01;44.00;100780.19;4436478;32;33854;-87
2024/01/10 09:25:16;;;;;;;;;;;;;;;-0.15;44.16;100783.13;4436699;32;33425;-86
2024/01/10 09:27:45;;;;;;;;;;;;;;;-0.26;43.04;100782.28;4436337;32;35180;-86
2024/01/10 09:30:12;;;;;;;;;;;;;;;-0.16;42.56;100766.94;4436156;32;34477;-85
2024/01/10 09:32:40;;;;;;;;;;;;;;;0.16;42.88;100768.66;4435815;32;33347;-86
2024/01/10 09:35:08;;;;;;;;;;;;;;;0.09;43.58;100759.63;4436248;32;34508;-86
2024/01/10 09:37:35;;;;;;;;;;;;;;;0.08;42.01;100767.16;4435682;32;33850;-86
2024/01/10 09:40:03;;;;;;;;;;;;;;;0.33;41.75;100762.31;4437124;32;34470;-87
2024/01/10 09:42:33;;;;;;;;;;;;;;;0.52;41.35;100763.00;4436528;32;33845;-86
2024/01/10 09:45:03;;;;;;;;;;;;;;;0.69;41.82;100766.88;4436110;32;34693;-86
2024/01/10 09:47:31;;;;;;;;;;;;;;;0.64;41.68;100763.94;4435200;32;34218;-85
2024/01/10 09:50:01;;;;;;;;;;;;;;;0.46;42.23;100754.88;4434757;32;33473;-85
2024/01/10 09:52:29;;;;;;;;;;;;;;;0.50;41.94;100759.44;4433902;32;33048;-86
2024/01/10 09:54:57;;;;;;;;;;;;;;;0.81;42.12;100752.50;4434859;32;33906;-86
2024/01/10 09:57:25;;;;;;;;;;;;;;;0.46;40.81;100753.22;4421134;32;34292;-86
2024/01/10 09:59:53;;;;;;;;;;;;;;;0.75;40.72;100752.00;4421183;32;34801;-84
2024/01/10 10:02:24;;;;;;;;;;;;;;;0.80;42.06;100750.72;4433736;32;33473;-86
2024/01/10 10:04:54;;;;;;;;;;;;;;;0.42;42.94;100745.22;4436649;32;34078;-86
2024/01/10 10:07:24;;;;;;;;;;;;;;;0.67;40.97;100743.75;4435031;32;33817;-87
2024/01/10 10:09:53;;;;;;;;;;;;;;;0.85;41.25;100739.19;4435408;32;35069;-87
2024/01/10 10:12:20;;;;;;;;;;;;;;;1.02;41.21;100731.91;4436312;32;33557;-86
2024/01/10 10:14:47;;;;;;;;;;;;;;;1.18;40.57;100730.62;4436719;32;34196;-87
2024/01/10 10:17:15;;;;;;;;;;;;;;;0.77;41.15;100740.25;4436405;32;35158;-87
2024/01/10 10:19:44;;;;;;;;;;;;;;;0.60;40.56;100731.28;4436212;32;35137;-86
2024/01/10 10:22:11;;;;;;;;;;;;;;;1.24;39.72;100735.28;4432118;32;32952;-87
2024/01/10 10:24:39;;;;;;;;;;;;;;;1.54;40.34;100735.78;4425985;32;34225;-86
2024/01/10 10:27:10;;;;;;;;;;;;;;;1.46;39.06;100722.44;4421545;32;34336;-87
2024/01/10 10:29:37;;;;;;;;;;;;;;;0.90;39.89;100737.84;4422112;32;34452;-84
2024/01/10 10:32:06;;;;;;;;;;;;;;;1.29;39.93;100728.87;4445137;32;33322;-87
2024/01/10 10:34:33;;;;;;;;;;;;;;;1.96;39.57;100707.31;4451860;32;34069;-87
2024/01/10 10:37:01;;;;;;;;;;;;;;;1.57;40.35;100707.91;4423439;32;35109;-88
2024/01/10 10:39:29;;;;;;;;;;;;;;;1.56;40.08;100701.03;4422365;32;34295;-86
2024/01/10 10:41:57;;;;;;;;;;;;;;;1.68;40.21;100700.25;4436150;32;33352;-85
2024/01/10 10:44:25;;;;;;;;;;;;;;;1.72;41.75;100696.25;4436632;32;34265;-86
2024/01/10 10:46:54;;;;;;;;;;;;;;;1.77;40.65;100709.34;4422047;32;34083;-87
2024/01/10 10:49:35;;;;;;;;;;;;;;;2.00;41.10;100698.22;4423792;32;34027;-87
2024/01/10 10:52:03;;;;;;;;;;;;;;;2.16;40.44;100695.97;4434930;32;33163;-87
2024/01/10 10:54:31;;;;;;;;;;;;;;;2.50;40.57;100688.06;4434766;32;34177;-87
2024/01/10 10:56:58;;;;;;;;;;;;;;;2.54;39.68;100693.53;4434507;32;34146;-86
2024/01/10 10:59:26;;;;;;;;;;;;;;;2.61;40.65;100697.38;4434235;32;34430;-87
2024/01/10 11:01:53;;;;;;;;;;;;;;;2.52;39.10;100686.50;4436690;32;33418;-86
2024/01/10 11:04:21;;;;;;;;;;;;;;;2.03;42.33;100683.97;4433053;32;34166;-86
2024/01/10 11:06:49;;;;;;;;;;;;;;;2.38;40.35;100677.87;4435912;32;33738;-86
2024/01/10 11:09:17;;;;;;;;;;;;;;;2.35;41.49;100678.56;4435994;32;33891;-87
2024/01/10 11:11:50;;;;;;;;;;;;;;;2.68;40.85;100671.41;4421532;32;33138;-84
2024/01/10 11:14:18;;;;;;;;;;;;;;;2.68;38.61;100667.16;4434375;32;33436;-85
2024/01/10 11:16:58;;;;;;;;;;;;;;;2.61;40.09;100671.78;4435338;32;34226;-86
2024/01/10 11:19:33;;;;;;;;;;;;;;;2.66;40.66;100668.75;4435828;32;33915;-85
2024/01/10 11:22:07;;;;;;;;;;;;;;;2.83;38.59;100654.50;4434205;32;33550;-87
2024/01/10 11:24:35;;;;;;;;;;;;;;;1.99;40.46;100663.19;4433631;32;34248;-85
2024/01/10 11:27:12;;;;;;;;;;;;;;;2.47;39.71;100658.03;4443130;32;34453;-87
2024/01/10 11:29:40;;;;;;;;;;;;;;;2.22;40.34;100655.44;4437037;32;34486;-86
2024/01/10 11:32:14;;;;;;;;;;;;;;;2.41;39.73;100653.38;4406303;32;33223;-87
2024/01/10 11:35:10;;;;;;;;;;;;;;;2.61;39.53;100651.28;4420745;32;33919;-87
2024/01/10 11:37:44;;;;;;;;;;;;;;;2.13;42.58;100649.72;4420093;32;33948;-87
2024/01/10 11:40:12;;;;;;;;;;;;;;;2.30;40.11;100649.19;4422390;32;35171;-85
2024/01/10 11:42:43;;;;;;;;;;;;;;;2.49;40.02;100651.34;4427137;32;33248;-87
2024/01/10 11:45:10;;;;;;;;;;;;;;;2.36;40.72;100644.50;4437567;32;34081;-87
2024/01/10 11:47:38;;;;;;;;;;;;;;;2.63;40.93;100636.94;4436153;32;35149;-86
2024/01/10 11:50:07;;;;;;;;;;;;;;;2.83;41.50;100648.50;4437494;32;34178;-87
2024/01/10 11:52:36;;;;;;;;;;;;;;;2.48;40.66;100647.00;4436189;32;34332;-87
2024/01/10 11:55:07;;;;;;;;;;;;;;;2.74;39.78;100646.22;4426822;32;34195;-87
2024/01/10 11:57:34;;;;;;;;;;;;;;;2.50;40.97;100644.53;4421949;32;35069;-87
2024/01/10 12:00:05;;;;;;;;;;;;;;;2.83;40.87;100646.84;4418622;32;34042;-87
2024/01/10 12:02:33;;;;;;;;;;;;;;;2.95;40.48;100635.62;4420355;32;33199;-87
2024/01/10 12:05:01;;;;;;;;;;;;;;;3.04;40.18;100636.25;4422199;32;34218;-87
2024/01/10 12:07:29;;;;;;;;;;;;;;;2.93;42.19;100632.97;4421180;32;34437;-88
2024/01/10 12:09:57;;;;;;;;;;;;;;;2.58;41.11;100631.50;4419841;32;34347;-87
2024/01/10 12:12:24;;;;;;;;;;;;;;;2.87;40.54;100628.31;4421584;32;33586;-89
2024/01/10 12:14:52;;;;;;;;;;;;;;;2.83;40.89;100628.03;4433655;32;34019;-87
2024/01/10 12:17:19;;;;;;;;;;;;;;;2.60;40.10;100632.47;4437020;32;33479;-85
2024/01/10 12:19:47;;;;;;;;;;;;;;;3.06;39.84;100619.28;4437264;32;34257;-88
2024/01/10 12:22:16;;;;;;;;;;;;;;;2.80;43.08;100615.00;4437282;32;33261;-87
2024/01/10 12:24:45;;;;;;;;;;;;;;;2.98;41.53;100615.34;4435637;32;33659;-88
2024/01/10 12:27:12;;;;;;;;;;;;;;;2.63;43.89;100621.56;4436041;32;34758;-88
2024/01/10 12:29:40;;;;;;;;;;;;;;;2.82;41.99;100610.88;4437187;32;34447;-87
2024/01/10 12:32:09;;;;;;;;;;;;;;;2.81;40.18;100610.00;4437076;32;34426;-87
2024/01/10 12:34:40;;;;;;;;;;;;;;;2.83;40.91;100613.53;4437251;32;34524;-86
2024/01/10 12:37:07;;;;;;;;;;;;;;;3.15;40.59;100620.81;4437043;32;34167;-85
2024/01/10 12:39:35;;;;;;;;;;;;;;;3.16;42.42;100621.69;4422890;32;34702;-87
2024/01/10 12:42:02;;;;;;;;;;;;;;;3.14;42.99;100628.38;4409549;32;33170;-87
2024/01/10 12:44:33;;;;;;;;;;;;;;;2.94;42.86;100624.50;4406388;32;35061;-87
2024/01/10 12:47:02;;;;;;;;;;;;;;;3.04;40.58;100618.31;4421292;32;34304;-87
2024/01/10 12:49:30;;;;;;;;;;;;;;;2.72;42.43;100611.03;4421048;32;33580;-86